Weather observations for the past three days for
Muncie, Delaware County-Johnson Field
Metric (Imperial)
Date Time (edt) Wind (kph) Vis. (km) Weather Sky Cond. Temperature (ºC) Relative Humidity Wind Chill (°C) Heat Index (°C) Pressure Precipitation (cm)
Air Dwpt 6 hour altimeter (cm) sea level (mb) 1 hr 3 hr 6 hr
Max. Min.
06 01:53 NE 11 16.09 Fair CLR 19.4 17.8 25.6 19.4 91% 76.2 1014.6
06 00:53 NE 15 16.09 Fair CLR 20.6 18.9 90% 76.17 1014.4
05 23:53 NE 13 16.09 Mostly Cloudy BKN017 21.7 20.6 94% 76.15 1014.2
05 22:53 E 19 16.09 Mostly Cloudy SCT013 BKN020 BKN026 22.8 21.1 90% 76.12 1013.9
05 21:53 NE 17 16.09 Overcast OVC012 23.3 22.2 94% 76.1 1013.6
05 20:53 E 19 16.09 Fair CLR 23.9 22.2 90% 23 76.02 1012.4
05 19:53 NE 17 16.09 Fair CLR 25.6 23.9 31.7 25.6 90% 27 76 1012.0
05 18:53 E 11 16.09 A Few Clouds FEW022 27.8 23.9 79% 32 76 1012.1
05 17:53 NE 17 16.09 Mostly Cloudy BKN043 27.2 23.9 82% 30 75.95 1011.3
05 16:53 N 11 16.09 Mostly Cloudy FEW036 SCT043 BKN065 29.4 23.3 70% 34 75.92 1011.1
05 13:53 W 11 16.09 Fair CLR 30 21.7 30 20.6 61% 33 76.05 1012.6 0.56
05 12:53 W 9 16.09 Fair CLR 26.7 22.8 79% 29 76.1 1013.3 0.03
05 11:53 SW 7 16.09 Thunderstorm Light Rain SCT034 BKN055 OVC110 23.3 21.7 91% 76.15 1014.0 0.53
05 10:53 SW 13 16.09 Fair CLR 26.1 20 69% 27 76.07 1013.1
05 09:53 SE 11 16.09 Fair CLR 24.4 19.4 74% 25 76.1 1013.3
05 08:53 S 13 16.09 Mostly Cloudy FEW039 SCT045 BKN055 21.7 19.4 87% 76.12 1013.8
05 07:53 SE 13 16.09 Fair CLR 20.6 18.9 25.6 20 90% 76.1 1013.5 0.03
05 06:53 SE 13 16.09 Mostly Cloudy BKN045 BKN060 20 18.9 93% 76.12 1013.8 0.03
05 05:53 E 22 16.09 Light Rain BKN040 BKN050 OVC110 21.1 18.9 87% 76.17 1014.3
05 04:53 E 37 G 50 16.09 Mostly Cloudy and Breezy FEW018 BKN070 23.9 21.7 88% 24 76.12 1013.7
05 03:53 SW 9 16.09 Fair CLR 25 22.2 85% 26 76.02 1012.2
05 02:53 SW 9 16.09 Fair CLR 25 22.2 85% 26 75.97 1011.3
05 01:53 Calm 16.09 Fair CLR 24.4 22.2 28.3 23.9 88% 25 76.02 1012.3
05 00:53 SW 11 16.09 Fair CLR 25.6 22.2 82% 27 76.07 1012.7
04 23:53 SW 9 16.09 Fair CLR 26.1 22.2 79% 28 76.07 1012.9
04 22:53 SW 7 16.09 Fair CLR 26.1 22.8 82% 28 76.1 1013.2
04 21:53 SW 7 16.09 Fair CLR 26.7 23.9 85% 29 76.07 1012.9
04 20:53 S 7 16.09 Fair CLR 27.8 23.3 77% 31 76.05 1012.6
04 19:53 Calm 16.09 Fair CLR 28.3 23.9 34.4 25.6 77% 32 76.05 1012.7 0.41
04 18:53 S 11 16.09 Fair CLR 30 23.3 67% 34 76.07 1012.8
04 17:53 SE 13 16.09 Fair CLR 29.4 23.9 72% 34 76.07 1013.0
04 16:53 SE 13 16.09 Fair CLR 27.8 24.4 82% 32 76.02 1012.4 0.41
04 15:53 E 19 16.09 Thunderstorm in Vicinity Light Rain FEW017 SCT026 BKN075 27.2 25 88% 31 76.15 1014.0 0.41
04 14:53 NW 15 16.09 Partly Cloudy SCT080 33.9 21.7 49% 38 76.2 1014.3
04 13:53 NW 17 16.09 Mostly Cloudy SCT050 BKN070 32.2 22.8 34.4 25 58% 37 76.23 1014.8
04 12:53 W 15 16.09 Fair CLR 33.3 22.8 54% 38 76.25 1015.2
04 11:53 W 17 G 26 16.09 Fair CLR 32.8 22.8 56% 38 76.25 1015.3
04 10:53 W 19 16.09 Fair CLR 31.1 22.8 61% 35 76.25 1015.4
04 09:53 W 15 16.09 Fair CLR 28.9 22.2 67% 32 76.23 1015.0
04 08:53 SW 9 16.09 Mostly Cloudy BKN075 26.1 22.2 79% 28 76.25 1015.2
04 07:53 SW 9 16.09 Fair CLR 25 21.7 26.7 23.3 82% 26 76.2 1014.7
04 06:53 SW 11 16.09 Fair CLR 25 21.7 82% 26 76.12 1013.6
04 05:53 SW 9 16.09 Fair CLR 25.6 21.7 79% 27 76.12 1013.5
04 04:53 SW 11 16.09 Fair CLR 25.6 21.7 79% 27 76.1 1013.3
04 03:53 SW 11 16.09 Fair CLR 26.7 22.2 76% 29 76.15 1013.6
04 02:53 S 7 16.09 Fair CLR 25 22.2 85% 26 76.17 1014.2
04 01:53 Calm 16.09 Fair CLR 23.9 21.7 31.1 23.3 88% 24 76.23 1014.7
04 00:53 Calm 16.09 Fair CLR 24.4 21.7 85% 25 76.2 1014.7
03 23:53 S 7 16.09 Fair CLR 25.6 21.7 79% 27 76.2 1014.4
03 22:53 S 6 16.09 A Few Clouds FEW100 25.6 21.7 79% 27 76.23 1014.7
03 21:53 SE 11 16.09 A Few Clouds FEW110 25 21.7 82% 26 76.23 1014.9
03 20:53 N 13 16.09 Fair CLR 26.7 21.1 71% 28 76.2 1014.7
03 19:53 W 11 16.09 Partly Cloudy SCT110 30.6 22.8 35 30.6 63% 35 76.15 1013.7
03 18:53 W 13 16.09 Fair CLR 32.8 21.7 52% 36 76.1 1013.2
03 17:53 W 19 G 33 16.09 Fair CLR 33.9 21.7 49% 38 76.07 1012.9
03 16:53 W 20 G 35 16.09 Fair CLR 34.4 20.6 44% 37 76.07 1012.8
03 15:53 W 24 G 33 16.09 Fair CLR 34.4 21.1 46% 38 76.12 1013.3
03 14:53 W 19 G 30 16.09 A Few Clouds FEW055 33.9 21.7 49% 38 76.2 1014.3
03 13:53 W 22 16.09 Fair CLR 33.9 22.2 33.9 25 50% 38 76.2 1014.6
03 12:53 W 17 16.09 Fair CLR 32.8 21.7 52% 36 76.25 1015.0
03 11:53 W 20 16.09 Fair CLR 32.2 22.2 56% 36 76.28 1015.5
03 10:53 W 15 16.09 Fair CLR 30.6 22.2 61% 34 76.28 1015.4
03 09:53 SW 15 16.09 Fair CLR 28.9 22.2 67% 32 76.28 1015.6
03 08:53 SW 11 16.09 Fair CLR 26.7 22.2 76% 29 76.3 1015.9
03 07:53 SW 9 16.09 Fair CLR 25 21.7 27.2 24.4 82% 26 76.3 1015.9
03 06:53 SW 9 16.09 A Few Clouds FEW110 25 21.7 82% 26 76.25 1015.3
03 05:53 SW 9 16.09 Fair CLR 25 21.7 82% 26 76.23 1014.9
03 04:53 SW 13 16.09 Fair CLR 26.1 21.7 77% 28 76.23 1014.9
03 03:53 SW 11 16.09 Fair CLR 26.1 22.2 79% 28 76.23 1014.8
03 02:53 SW 11 16.09 Fair CLR 26.7 22.2 76% 29 76.23 1014.8
Date Time (edt) Wind (kph) Vis. (km) Weather Sky Cond. Air Dwpt Max. Min. Relative Humidity Wind Chill (°C) Heat Index (°C) altimeter (cm) sea level (mb) 1 hr 3 hr 6 hr
6 hour
Temperature (ºC) Pressure Precipitation (cm)